PAB260 LPPT-LEMD
Flight info
| Callsign | PAB260 |
|---|---|
| Flight time | N/A |
| Altitude | 22000 |
| Route | DMT DCT CCS DCT TLD DCT VGE |
| Aircraft | CONI/M-SDFY/C |
Departure
| Time | 2026-05-05 19:37 |
|---|---|
| Airport | Lisbon Humberto Delgado Airport (LPPT) |
Arrival
| Time | N/A |
|---|---|
| Airport | Adolfo Suárez Madrid–Barajas Airport (LEMD) |
| Time | Latitude | Longitude | Altitude | Speed | Heading |
|---|---|---|---|---|---|
| 2026-05-05 19:16 | 38.77150 | -9.13550 | 384 ft | 0 kts | 167° |
| 2026-05-05 19:25 | 38.77159 | -9.13553 | 384 ft | 3 kts | 168° |
| 2026-05-05 19:26 | 38.77179 | -9.13557 | 384 ft | 3 kts | 174° |
| 2026-05-05 19:26 | 38.77199 | -9.13558 | 384 ft | 3 kts | 187° |
| 2026-05-05 19:26 | 38.77216 | -9.13549 | 384 ft | 3 kts | 230° |
| 2026-05-05 19:26 | 38.77220 | -9.13536 | 384 ft | 1 kts | 257° |
| 2026-05-05 19:27 | 38.77221 | -9.13533 | 384 ft | 0 kts | 257° |
| 2026-05-05 19:27 | 38.77218 | -9.13549 | 384 ft | 11 kts | 257° |
| 2026-05-05 19:28 | 38.77209 | -9.13604 | 384 ft | 6 kts | 257° |
| 2026-05-05 19:28 | 38.77193 | -9.13698 | 384 ft | 17 kts | 259° |
| 2026-05-05 19:28 | 38.77177 | -9.13815 | 384 ft | 12 kts | 260° |
| 2026-05-05 19:28 | 38.77135 | -9.13897 | 384 ft | 11 kts | 208° |
| 2026-05-05 19:29 | 38.77049 | -9.13943 | 384 ft | 21 kts | 202° |
| 2026-05-05 19:29 | 38.76910 | -9.14019 | 384 ft | 17 kts | 202° |
| 2026-05-05 19:29 | 38.76827 | -9.14061 | 384 ft | 11 kts | 202° |
| 2026-05-05 19:29 | 38.76767 | -9.14092 | 384 ft | 11 kts | 202° |
| 2026-05-05 19:30 | 38.76650 | -9.14158 | 384 ft | 24 kts | 207° |
| 2026-05-05 19:30 | 38.76539 | -9.14239 | 384 ft | 9 kts | 230° |
| 2026-05-05 19:30 | 38.76535 | -9.14287 | 384 ft | 3 kts | 288° |
| 2026-05-05 19:30 | 38.76536 | -9.14292 | 384 ft | 0 kts | 288° |
| 2026-05-05 19:31 | 38.76536 | -9.14293 | 384 ft | 0 kts | 288° |
| 2026-05-05 19:32 | 38.76537 | -9.14293 | 384 ft | 0 kts | 288° |
| 2026-05-05 19:34 | 38.76537 | -9.14294 | 384 ft | 0 kts | 288° |
| 2026-05-05 19:35 | 38.76564 | -9.14391 | 384 ft | 15 kts | 294° |
| 2026-05-05 19:35 | 38.76600 | -9.14430 | 384 ft | 8 kts | 4° |
| 2026-05-05 19:36 | 38.76664 | -9.14383 | 384 ft | 8 kts | 28° |
| 2026-05-05 19:36 | 38.76671 | -9.14379 | 384 ft | 0 kts | 22° |
| 2026-05-05 19:36 | 38.76860 | -9.14285 | 384 ft | 68 kts | 18° |
| 2026-05-05 19:36 | 38.77449 | -9.13951 | 385 ft | 113 kts | 19° |
| 2026-05-05 19:37 | 38.78173 | -9.13524 | 655 ft | 118 kts | 19° |
| 2026-05-05 19:37 | 38.78937 | -9.13074 | 998 ft | 122 kts | 21° |
| 2026-05-05 19:37 | 38.79670 | -9.12468 | 1305 ft | 138 kts | 36° |
| 2026-05-05 19:37 | 38.80274 | -9.11336 | 1519 ft | 168 kts | 68° |
| 2026-05-05 19:38 | 38.80522 | -9.09813 | 1872 ft | 181 kts | 77° |
| 2026-05-05 19:38 | 38.80692 | -9.08170 | 2230 ft | 191 kts | 78° |
| 2026-05-05 19:38 | 38.80893 | -9.06458 | 2562 ft | 196 kts | 75° |
| 2026-05-05 19:38 | 38.81186 | -9.04748 | 2877 ft | 197 kts | 70° |
| 2026-05-05 19:39 | 38.81555 | -9.03068 | 3201 ft | 195 kts | 68° |
| 2026-05-05 19:39 | 38.81971 | -9.01425 | 3526 ft | 192 kts | 66° |
| 2026-05-05 19:39 | 38.82409 | -8.99826 | 3847 ft | 188 kts | 64° |
| 2026-05-05 19:39 | 38.82854 | -8.98273 | 4168 ft | 183 kts | 64° |
| 2026-05-05 19:40 | 38.83295 | -8.96776 | 4485 ft | 180 kts | 64° |
| 2026-05-05 19:40 | 38.83741 | -8.95292 | 4805 ft | 177 kts | 63° |
| 2026-05-05 19:40 | 38.84197 | -8.93809 | 5063 ft | 181 kts | 63° |
| 2026-05-05 19:40 | 38.84671 | -8.92303 | 5317 ft | 183 kts | 63° |
| 2026-05-05 19:41 | 38.85157 | -8.90784 | 5568 ft | 185 kts | 62° |
| 2026-05-05 19:41 | 38.85651 | -8.89251 | 5819 ft | 186 kts | 62° |
| 2026-05-05 19:41 | 38.86149 | -8.87710 | 6071 ft | 187 kts | 62° |
| 2026-05-05 19:41 | 38.86648 | -8.86170 | 6321 ft | 187 kts | 62° |
| 2026-05-05 19:42 | 38.87145 | -8.84634 | 6568 ft | 186 kts | 63° |
| 2026-05-05 19:42 | 38.87640 | -8.83101 | 6819 ft | 185 kts | 63° |
| 2026-05-05 19:42 | 38.88129 | -8.81576 | 7070 ft | 184 kts | 63° |
| 2026-05-05 19:42 | 38.88615 | -8.80055 | 7320 ft | 184 kts | 63° |
| 2026-05-05 19:43 | 38.89103 | -8.78530 | 7571 ft | 185 kts | 63° |
| 2026-05-05 19:43 | 38.89604 | -8.76977 | 7729 ft | 192 kts | 63° |
| 2026-05-05 19:43 | 38.90130 | -8.75369 | 7859 ft | 198 kts | 63° |
| 2026-05-05 19:43 | 38.90674 | -8.73716 | 7988 ft | 203 kts | 63° |
| 2026-05-05 19:44 | 38.91225 | -8.72049 | 8114 ft | 207 kts | 63° |
| 2026-05-05 19:44 | 38.91797 | -8.70311 | 8245 ft | 210 kts | 63° |
| 2026-05-05 19:44 | 38.92360 | -8.68594 | 8368 ft | 213 kts | 63° |
| 2026-05-05 19:44 | 38.92933 | -8.66836 | 8494 ft | 214 kts | 64° |
| 2026-05-05 19:45 | 38.93509 | -8.65066 | 8619 ft | 215 kts | 63° |
| 2026-05-05 19:45 | 38.94085 | -8.63288 | 8744 ft | 216 kts | 64° |
| 2026-05-05 19:45 | 38.94659 | -8.61505 | 8872 ft | 216 kts | 64° |
| 2026-05-05 19:45 | 38.95232 | -8.59718 | 8996 ft | 216 kts | 64° |
| 2026-05-05 19:46 | 38.95803 | -8.57932 | 9122 ft | 216 kts | 64° |
| 2026-05-05 19:46 | 38.96374 | -8.56145 | 9246 ft | 216 kts | 64° |
| 2026-05-05 19:46 | 38.96942 | -8.54357 | 9372 ft | 216 kts | 64° |
| 2026-05-05 19:46 | 38.97514 | -8.52559 | 9497 ft | 218 kts | 64° |
| 2026-05-05 19:47 | 38.98090 | -8.50751 | 9623 ft | 219 kts | 64° |
| 2026-05-05 19:47 | 38.98668 | -8.48932 | 9749 ft | 220 kts | 64° |
| 2026-05-05 19:47 | 38.99248 | -8.47107 | 9874 ft | 221 kts | 64° |
| 2026-05-05 19:47 | 38.99829 | -8.45275 | 9999 ft | 222 kts | 64° |
| 2026-05-05 19:48 | 39.00410 | -8.43437 | 10124 ft | 222 kts | 64° |
| 2026-05-05 19:48 | 39.00988 | -8.41602 | 10287 ft | 221 kts | 64° |
| 2026-05-05 19:48 | 39.01561 | -8.39772 | 10462 ft | 220 kts | 64° |
| 2026-05-05 19:48 | 39.02131 | -8.37949 | 10636 ft | 220 kts | 64° |
| 2026-05-05 19:49 | 39.02697 | -8.36127 | 10810 ft | 219 kts | 64° |
| 2026-05-05 19:49 | 39.03071 | -8.34924 | 10925 ft | 219 kts | 64° |
| 2026-05-05 19:49 | 39.03822 | -8.32492 | 11159 ft | 219 kts | 64° |
| 2026-05-05 19:49 | 39.04381 | -8.30675 | 11333 ft | 218 kts | 64° |
| 2026-05-05 19:50 | 39.04936 | -8.28858 | 11508 ft | 218 kts | 64° |
| 2026-05-05 19:50 | 39.05487 | -8.27043 | 11682 ft | 218 kts | 64° |
| 2026-05-05 19:50 | 39.06032 | -8.25230 | 11858 ft | 217 kts | 64° |
| 2026-05-05 19:50 | 39.06568 | -8.23413 | 12032 ft | 217 kts | 65° |
| 2026-05-05 19:51 | 39.07091 | -8.21595 | 12208 ft | 216 kts | 66° |
| 2026-05-05 19:51 | 39.07632 | -8.19794 | 12387 ft | 215 kts | 63° |
| 2026-05-05 19:51 | 39.08194 | -8.18014 | 12561 ft | 215 kts | 63° |
| 2026-05-05 19:51 | 39.08743 | -8.16229 | 12734 ft | 214 kts | 64° |
| 2026-05-05 19:52 | 39.09274 | -8.14437 | 12906 ft | 214 kts | 65° |
| 2026-05-05 19:52 | 39.09788 | -8.12642 | 13081 ft | 213 kts | 65° |
| 2026-05-05 19:52 | 39.10289 | -8.10845 | 13241 ft | 213 kts | 65° |
| 2026-05-05 19:52 | 39.10778 | -8.09062 | 13347 ft | 217 kts | 66° |
| 2026-05-05 19:53 | 39.11277 | -8.07226 | 13543 ft | 218 kts | 66° |
| 2026-05-05 19:53 | 39.11774 | -8.05380 | 13749 ft | 218 kts | 66° |
| 2026-05-05 19:53 | 39.12270 | -8.03530 | 13952 ft | 219 kts | 66° |
| 2026-05-05 19:53 | 39.12763 | -8.01677 | 14161 ft | 219 kts | 66° |
| 2026-05-05 19:54 | 39.13257 | -7.99817 | 14366 ft | 220 kts | 66° |
| 2026-05-05 19:54 | 39.13751 | -7.97951 | 14572 ft | 220 kts | 66° |
| 2026-05-05 19:54 | 39.14245 | -7.96079 | 14778 ft | 221 kts | 65° |
| 2026-05-05 19:54 | 39.14740 | -7.94204 | 14984 ft | 222 kts | 66° |
| 2026-05-05 19:55 | 39.15238 | -7.92317 | 15185 ft | 223 kts | 66° |
| 2026-05-05 19:55 | 39.15737 | -7.90423 | 15385 ft | 224 kts | 66° |
| 2026-05-05 19:55 | 39.16238 | -7.88519 | 15586 ft | 225 kts | 66° |
| 2026-05-05 19:55 | 39.16740 | -7.86611 | 15785 ft | 225 kts | 66° |
| 2026-05-05 19:56 | 39.17244 | -7.84693 | 15942 ft | 228 kts | 66° |
| 2026-05-05 19:56 | 39.17760 | -7.82740 | 16030 ft | 233 kts | 66° |
| 2026-05-05 19:56 | 39.18295 | -7.80737 | 16050 ft | 240 kts | 66° |
| 2026-05-05 19:56 | 39.18848 | -7.78679 | 16051 ft | 246 kts | 66° |
| 2026-05-05 19:57 | 39.19417 | -7.76571 | 16049 ft | 252 kts | 66° |
| 2026-05-05 19:57 | 39.19802 | -7.75148 | 16048 ft | 256 kts | 66° |
| 2026-05-05 19:57 | 39.20597 | -7.72215 | 16046 ft | 262 kts | 66° |
| 2026-05-05 19:57 | 39.21202 | -7.69975 | 16044 ft | 266 kts | 66° |
| 2026-05-05 19:58 | 39.21812 | -7.67710 | 16043 ft | 269 kts | 66° |
| 2026-05-05 19:58 | 39.22428 | -7.65415 | 16042 ft | 272 kts | 66° |
| 2026-05-05 19:58 | 39.23046 | -7.63098 | 16040 ft | 275 kts | 66° |
| 2026-05-05 19:58 | 39.23669 | -7.60759 | 16039 ft | 277 kts | 66° |
| 2026-05-05 19:59 | 39.24295 | -7.58395 | 16038 ft | 279 kts | 67° |
| 2026-05-05 19:59 | 39.24922 | -7.56017 | 16037 ft | 281 kts | 67° |
| 2026-05-05 19:59 | 39.25554 | -7.53616 | 16035 ft | 283 kts | 67° |
| 2026-05-05 19:59 | 39.26186 | -7.51204 | 16036 ft | 285 kts | 67° |
| 2026-05-05 20:00 | 39.26822 | -7.48775 | 16034 ft | 286 kts | 67° |
| 2026-05-05 20:00 | 39.27451 | -7.46366 | 16032 ft | 288 kts | 67° |
| 2026-05-05 20:00 | 39.28089 | -7.43913 | 16031 ft | 289 kts | 67° |
| 2026-05-05 20:00 | 39.28730 | -7.41446 | 16030 ft | 291 kts | 67° |
| 2026-05-05 20:01 | 39.29372 | -7.38966 | 16029 ft | 292 kts | 67° |
| 2026-05-05 20:01 | 39.30015 | -7.36476 | 16028 ft | 293 kts | 67° |
| 2026-05-05 20:01 | 39.30660 | -7.33976 | 16027 ft | 294 kts | 68° |
| 2026-05-05 20:01 | 39.30878 | -7.33130 | 16026 ft | 294 kts | 68° |